createdAt,value
2022-11-24T00:01:08.783Z,61.32
2022-11-24T00:03:35.528Z,59.85
2022-11-24T00:06:07.173Z,59.54
2022-11-24T00:08:37.810Z,57.44
2022-11-24T00:11:09.764Z,56.54
2022-11-24T00:13:39.678Z,57.99
2022-11-24T00:16:22.248Z,62.33
2022-11-24T00:18:50.570Z,68.06
2022-11-24T00:21:17.751Z,64.50
2022-11-24T00:23:44.963Z,60.96
2022-11-24T00:26:14.161Z,59.90
2022-11-24T00:28:41.519Z,58.76
2022-11-24T00:31:28.154Z,56.97
2022-11-24T00:33:57.929Z,57.44
2022-11-24T00:36:27.919Z,60.01
2022-11-24T00:38:59.503Z,59.01
2022-11-24T00:41:26.752Z,58.55
2022-11-24T00:43:53.698Z,58.86
2022-11-24T00:46:21.066Z,58.56
2022-11-24T00:48:48.094Z,58.22
2022-11-24T00:51:16.061Z,60.77
2022-11-24T00:53:43.107Z,65.05
2022-11-24T00:56:10.266Z,72.33
2022-11-24T00:58:37.098Z,70.42
2022-11-24T01:01:15.232Z,67.71
2022-11-24T01:03:42.351Z,65.88
2022-11-24T01:06:14.230Z,65.57
2022-11-24T01:08:41.066Z,64.97
2022-11-24T01:11:12.834Z,63.91
2022-11-24T01:13:39.650Z,62.86
2022-11-24T01:16:06.733Z,61.96
2022-11-24T01:18:33.435Z,61.52
2022-11-24T01:21:09.637Z,60.94
2022-11-24T01:23:37.059Z,60.37
2022-11-24T01:26:05.366Z,59.89
2022-11-24T01:28:32.174Z,59.60
2022-11-24T01:31:00.659Z,58.24
2022-11-24T01:33:27.693Z,57.09
2022-11-24T01:35:54.436Z,62.29
2022-11-24T01:38:21.173Z,66.31
2022-11-24T01:40:47.809Z,64.05
2022-11-24T01:43:20.390Z,59.56
2022-11-24T01:45:47.692Z,57.12
2022-11-24T01:48:27.352Z,56.76
2022-11-24T01:51:07.944Z,57.08
2022-11-24T01:53:35.194Z,60.88
2022-11-24T01:56:02.343Z,66.03
2022-11-24T01:58:29.492Z,67.20
2022-11-24T02:00:56.231Z,65.19
2022-11-24T02:03:28.340Z,63.54
2022-11-24T02:06:01.511Z,62.24
2022-11-24T02:08:40.408Z,61.34
2022-11-24T02:11:07.046Z,61.05
2022-11-24T02:13:36.551Z,60.37
2022-11-24T02:16:04.939Z,59.85
2022-11-24T02:18:31.567Z,59.60
2022-11-24T02:20:59.123Z,59.05
2022-11-24T02:23:41.631Z,58.32
2022-11-24T02:26:14.003Z,57.20
2022-11-24T02:28:40.535Z,56.79
2022-11-24T02:31:07.229Z,59.04
2022-11-24T02:33:34.224Z,58.99
2022-11-24T02:36:00.858Z,60.54
2022-11-24T02:38:33.839Z,62.83
2022-11-24T02:41:08.042Z,70.06
2022-11-24T02:43:39.414Z,69.65
2022-11-24T02:46:06.322Z,68.25
2022-11-24T02:48:32.951Z,66.95
2022-11-24T02:50:59.521Z,65.29
2022-11-24T02:53:26.055Z,63.61
2022-11-24T02:55:52.690Z,63.23
2022-11-24T02:58:19.428Z,62.45
2022-11-24T03:00:46.065Z,62.06
2022-11-24T03:03:12.707Z,61.64
2022-11-24T03:05:39.340Z,60.69
2022-11-24T03:08:06.080Z,60.25
2022-11-24T03:10:32.715Z,60.23
2022-11-24T03:12:59.457Z,59.34
2022-11-24T03:15:26.093Z,56.73
2022-11-24T03:17:54.263Z,57.20
2022-11-24T03:20:20.798Z,58.47
2022-11-24T03:22:47.331Z,59.96
2022-11-24T03:25:14.276Z,60.51
2022-11-24T03:27:40.811Z,60.11
2022-11-24T03:30:08.375Z,60.31
2022-11-24T03:32:34.862Z,60.30
2022-11-24T03:35:01.437Z,60.41
2022-11-24T03:37:27.985Z,61.22
2022-11-24T03:39:54.609Z,60.18
2022-11-24T03:42:21.109Z,59.86
2022-11-24T03:44:47.607Z,59.86
2022-11-24T03:47:14.119Z,60.40
2022-11-24T03:49:41.015Z,60.54
2022-11-24T03:52:08.545Z,61.15
2022-11-24T03:54:35.435Z,62.14
2022-11-24T03:57:02.197Z,63.68
2022-11-24T03:59:28.727Z,73.20
2022-11-24T04:01:55.733Z,75.77
2022-11-24T04:04:22.366Z,71.16
2022-11-24T04:06:48.843Z,67.77
2022-11-24T04:09:15.585Z,64.98
2022-11-24T04:12:00.757Z,63.49
2022-11-24T04:14:27.381Z,62.45
2022-11-24T04:16:53.923Z,61.50
2022-11-24T04:19:20.667Z,60.66
2022-11-24T04:21:47.300Z,59.49
2022-11-24T04:24:14.354Z,57.12
2022-11-24T04:26:40.983Z,57.30
2022-11-24T04:29:09.158Z,58.61
2022-11-24T04:31:35.805Z,59.83
2022-11-24T04:34:02.427Z,61.20
2022-11-24T04:36:28.975Z,61.36
2022-11-24T04:39:19.469Z,67.15
2022-11-24T04:41:42.204Z,70.13
2022-11-24T04:44:08.739Z,66.39
2022-11-24T04:46:35.558Z,63.30
2022-11-24T04:49:02.251Z,61.70
2022-11-24T04:51:29.413Z,59.84
2022-11-24T04:53:56.004Z,57.84
2022-11-24T04:56:22.740Z,56.90
2022-11-24T04:58:51.938Z,57.88
2022-11-24T05:01:18.610Z,59.01
2022-11-24T05:03:45.461Z,59.99
2022-11-24T05:06:12.055Z,61.22
2022-11-24T05:08:38.690Z,60.68
2022-11-24T05:11:06.349Z,60.64
2022-11-24T05:13:32.987Z,60.53
2022-11-24T05:16:01.062Z,60.83
2022-11-24T05:18:28.414Z,61.46
2022-11-24T05:20:55.252Z,61.69
2022-11-24T05:23:21.788Z,61.65
2022-11-24T05:25:48.423Z,62.92
2022-11-24T05:28:15.124Z,73.35
2022-11-24T05:30:41.705Z,74.31
2022-11-24T05:33:18.478Z,71.48
2022-11-24T05:35:46.445Z,69.04
2022-11-24T05:38:12.985Z,66.26
2022-11-24T05:40:40.134Z,64.64
2022-11-24T05:43:16.179Z,63.42
2022-11-24T05:45:43.229Z,62.90
2022-11-24T05:48:12.265Z,62.19
2022-11-24T05:50:39.058Z,61.64
2022-11-24T05:53:08.061Z,61.89
2022-11-24T05:55:34.893Z,61.09
2022-11-24T05:58:07.096Z,60.65
2022-11-24T06:00:34.207Z,60.28
2022-11-24T06:03:01.203Z,59.97
2022-11-24T06:05:28.730Z,59.51
2022-11-24T06:07:55.614Z,57.38
2022-11-24T06:10:23.420Z,56.71
2022-11-24T06:12:50.365Z,57.69
2022-11-24T06:15:16.998Z,58.08
2022-11-24T06:17:43.878Z,59.35
2022-11-24T06:20:10.987Z,59.61
2022-11-24T06:22:37.732Z,60.51
2022-11-24T06:25:05.183Z,60.03
2022-11-24T06:27:31.922Z,60.45
2022-11-24T06:29:58.420Z,61.16
2022-11-24T06:32:24.896Z,61.61
2022-11-24T06:34:51.538Z,60.94
2022-11-24T06:37:18.265Z,60.62
2022-11-24T06:39:44.824Z,60.66
2022-11-24T06:42:11.387Z,60.75
2022-11-24T06:44:38.893Z,61.09
2022-11-24T06:47:05.325Z,61.27
2022-11-24T06:49:31.857Z,61.70
2022-11-24T06:51:58.598Z,62.16
2022-11-24T06:54:25.100Z,62.06
2022-11-24T06:56:58.608Z,64.01
2022-11-24T06:59:25.984Z,76.33
2022-11-24T07:01:53.028Z,74.55
2022-11-24T07:04:19.589Z,69.36
2022-11-24T07:06:46.065Z,65.62
2022-11-24T07:09:13.071Z,64.13
2022-11-24T07:11:40.047Z,63.55
2022-11-24T07:14:07.032Z,62.76
2022-11-24T07:16:33.665Z,61.44
2022-11-24T07:19:00.473Z,60.76
2022-11-24T07:21:28.067Z,58.28
2022-11-24T07:23:55.876Z,58.29
2022-11-24T07:26:23.017Z,59.85
2022-11-24T07:28:50.229Z,59.78
2022-11-24T07:31:19.676Z,64.23
2022-11-24T07:33:53.345Z,67.73
2022-11-24T07:36:20.236Z,66.08
2022-11-24T07:38:47.124Z,64.55
2022-11-24T07:41:14.734Z,63.89
2022-11-24T07:43:41.872Z,63.05
2022-11-24T07:46:10.342Z,61.91
2022-11-24T07:48:37.172Z,60.53
2022-11-24T07:51:04.099Z,60.68
2022-11-24T07:53:31.548Z,60.22
2022-11-24T07:56:02.381Z,59.17
2022-11-24T07:58:32.940Z,57.09
2022-11-24T08:01:07.733Z,58.23
2022-11-24T08:03:34.950Z,57.69
2022-11-24T08:09:01.059Z,60.83
2022-11-24T08:11:27.895Z,60.93
2022-11-24T08:13:54.752Z,61.15
2022-11-24T08:16:21.359Z,61.44
2022-11-24T08:18:50.381Z,60.99
2022-11-24T08:21:17.172Z,61.06
2022-11-24T08:23:43.627Z,60.85
2022-11-24T08:26:17.059Z,60.59
2022-11-24T08:28:44.652Z,61.10
2022-11-24T08:31:13.580Z,61.16
2022-11-24T08:33:40.380Z,61.43
2022-11-24T08:36:16.604Z,63.05
2022-11-24T08:38:44.152Z,72.58
2022-11-24T08:41:14.077Z,71.43
2022-11-24T08:43:40.768Z,68.84
2022-11-24T08:46:09.881Z,66.23
2022-11-24T08:48:36.598Z,63.50
2022-11-24T08:51:14.994Z,62.37
2022-11-24T08:53:41.872Z,60.32
2022-11-24T08:56:08.906Z,59.67
2022-11-24T08:58:35.904Z,57.11
2022-11-24T09:01:07.617Z,56.16
2022-11-24T09:03:34.405Z,57.14
2022-11-24T09:06:01.746Z,57.79
2022-11-24T09:08:30.009Z,57.57
2022-11-24T09:11:04.530Z,58.44
2022-11-24T09:13:31.034Z,58.72
2022-11-24T09:16:03.752Z,64.85
2022-11-24T09:18:30.641Z,68.47
2022-11-24T09:21:12.640Z,64.35
2022-11-24T09:23:39.508Z,62.59
2022-11-24T09:26:12.485Z,61.01
2022-11-24T09:28:39.478Z,61.65
2022-11-24T09:31:08.672Z,62.61
2022-11-24T09:33:35.587Z,61.90
2022-11-24T09:36:02.122Z,61.10
2022-11-24T09:38:28.669Z,59.63
2022-11-24T09:40:55.491Z,56.55
2022-11-24T09:43:25.023Z,58.36
2022-11-24T09:46:26.427Z,58.40
2022-11-24T09:48:54.304Z,58.98
2022-11-24T09:51:28.151Z,67.21
2022-11-24T09:54:01.450Z,68.16
2022-11-24T09:56:30.293Z,66.00
2022-11-24T09:59:19.242Z,64.16
2022-11-24T10:01:46.567Z,62.23
2022-11-24T10:04:25.870Z,61.09
2022-11-24T10:07:10.701Z,60.25
2022-11-24T10:10:24.603Z,60.72
2022-11-24T10:13:23.432Z,60.07
2022-11-24T10:16:02.231Z,57.42
2022-11-24T10:19:03.972Z,59.62
2022-11-24T10:21:37.842Z,60.51
2022-11-24T10:24:40.905Z,64.91
2022-11-24T10:27:19.051Z,65.40
2022-11-24T10:29:49.399Z,63.46
2022-11-24T10:32:34.625Z,62.97
2022-11-24T10:35:15.614Z,62.25
2022-11-24T10:37:56.275Z,61.05
2022-11-24T10:43:22.494Z,57.25
2022-11-24T10:45:49.155Z,62.19
2022-11-24T10:48:24.770Z,63.60
2022-11-24T10:51:04.828Z,63.10
2022-11-24T10:53:31.445Z,60.95
2022-11-24T10:56:00.541Z,60.46
2022-11-24T10:58:38.039Z,59.42
2022-11-24T11:01:14.155Z,60.05
2022-11-24T11:03:59.192Z,59.10
2022-11-24T11:06:28.379Z,59.14
2022-11-24T11:09:07.102Z,59.64
2022-11-24T11:11:34.688Z,61.18
2022-11-24T11:14:17.386Z,65.37
2022-11-24T11:16:52.099Z,66.06
2022-11-24T11:19:50.354Z,62.44
2022-11-24T11:22:26.901Z,60.39
2022-11-24T11:25:11.906Z,59.26
2022-11-24T11:27:39.611Z,59.59
2022-11-24T11:35:49.867Z,63.29
2022-11-24T11:38:16.394Z,62.27
2022-11-24T11:40:43.313Z,61.30
2022-11-24T11:43:25.841Z,60.09
2022-11-24T11:46:02.836Z,60.31
2022-11-24T11:48:40.670Z,59.47
2022-11-24T11:51:23.232Z,58.64
2022-11-24T11:54:36.415Z,58.01
2022-11-24T11:57:16.581Z,58.05
2022-11-24T11:59:54.781Z,58.61
2022-11-24T12:02:53.041Z,59.78
2022-11-24T12:05:33.936Z,64.44
2022-11-24T12:08:21.383Z,66.97
2022-11-24T12:11:21.604Z,63.76
2022-11-24T12:13:57.897Z,61.84
2022-11-24T12:16:45.070Z,60.07
2022-11-24T12:19:36.213Z,58.38
2022-11-24T12:22:54.441Z,57.22
2022-11-24T12:26:10.757Z,58.52
2022-11-24T12:28:58.715Z,59.35
2022-11-24T12:31:50.850Z,61.55
2022-11-24T12:34:25.876Z,67.64
2022-11-24T12:37:23.169Z,67.00
2022-11-24T12:40:03.166Z,64.57
2022-11-24T12:43:38.275Z,63.45
2022-11-24T12:46:17.785Z,62.07
2022-11-24T12:49:11.848Z,60.71
2022-11-24T12:51:42.045Z,59.92
2022-11-24T12:54:19.539Z,57.78
2022-11-24T12:56:55.885Z,56.36
2022-11-24T12:59:57.200Z,58.25
2022-11-24T13:02:57.988Z,57.92
2022-11-24T13:05:43.339Z,59.37
2022-11-24T13:08:09.926Z,61.33
2022-11-24T13:10:55.470Z,60.17
2022-11-24T13:13:25.989Z,59.84
2022-11-24T13:16:07.146Z,64.17
2022-11-24T13:18:58.891Z,69.42
2022-11-24T13:22:09.191Z,68.88
2022-11-24T13:24:39.569Z,66.97
2022-11-24T13:27:15.366Z,65.03
2022-11-24T13:29:42.962Z,64.41
2022-11-24T13:32:11.083Z,63.87
2022-11-24T13:34:44.984Z,62.22
2022-11-24T13:37:34.909Z,60.97
2022-11-24T13:40:23.239Z,60.03
2022-11-24T13:42:56.589Z,57.80
2022-11-24T13:45:38.294Z,57.39
2022-11-24T13:48:27.628Z,58.58
2022-11-24T13:50:54.203Z,60.55
2022-11-24T13:53:43.047Z,60.49
2022-11-24T13:56:28.264Z,61.09
2022-11-24T13:59:16.699Z,59.77
2022-11-24T14:01:46.129Z,60.48
2022-11-24T14:04:42.316Z,60.70
2022-11-24T14:07:11.345Z,61.48
2022-11-24T14:09:46.000Z,61.06
2022-11-24T14:12:23.345Z,64.35
2022-11-24T14:14:51.836Z,72.46
2022-11-24T14:17:22.526Z,71.56
2022-11-24T14:19:51.669Z,69.12
2022-11-24T14:22:20.820Z,67.38
2022-11-24T14:24:58.535Z,65.79
2022-11-24T14:27:33.876Z,64.42
2022-11-24T14:30:09.912Z,63.51
2022-11-24T14:32:37.342Z,62.48
2022-11-24T14:35:33.393Z,62.20
2022-11-24T14:38:04.636Z,61.06
2022-11-24T14:40:40.892Z,60.82
2022-11-24T14:43:30.749Z,60.58
2022-11-24T14:46:02.022Z,59.93
2022-11-24T14:48:44.728Z,58.92
2022-11-24T14:51:19.877Z,57.04
2022-11-24T14:53:52.141Z,58.26
2022-11-24T14:56:33.934Z,60.19
2022-11-24T14:59:00.476Z,60.71
2022-11-24T15:01:27.106Z,61.09
2022-11-24T15:04:26.957Z,65.47
2022-11-24T15:07:28.507Z,69.42
2022-11-24T15:09:57.380Z,66.87
2022-11-24T15:12:28.298Z,65.35
2022-11-24T15:14:58.248Z,64.07
2022-11-24T15:17:27.272Z,63.06
2022-11-24T15:19:57.877Z,62.06
2022-11-24T15:22:39.230Z,61.20
2022-11-24T15:25:32.967Z,60.36
2022-11-24T15:28:00.446Z,59.65
2022-11-24T15:30:27.110Z,58.07
2022-11-24T15:32:57.475Z,56.30
2022-11-24T15:35:26.094Z,57.09
2022-11-24T15:37:52.652Z,57.38
2022-11-24T15:40:19.896Z,57.63
2022-11-24T15:42:54.287Z,58.95
2022-11-24T15:45:23.388Z,59.87
2022-11-24T15:47:50.336Z,61.17
2022-11-24T15:50:17.274Z,67.81
2022-11-24T15:52:44.528Z,70.83
2022-11-24T15:55:21.136Z,69.73
2022-11-24T15:57:48.353Z,68.42
2022-11-24T16:00:17.067Z,66.78
2022-11-24T16:02:43.668Z,65.45
2022-11-24T16:05:11.148Z,64.44
2022-11-24T16:07:37.808Z,63.41
2022-11-24T16:10:06.143Z,62.71
2022-11-24T16:12:32.595Z,62.29
2022-11-24T16:14:58.999Z,61.65
2022-11-24T16:17:25.640Z,60.97
2022-11-24T16:20:00.159Z,60.26
2022-11-24T16:22:27.474Z,59.85
2022-11-24T16:24:54.048Z,59.27
2022-11-24T16:27:20.432Z,56.90
2022-11-24T16:29:46.842Z,57.09
2022-11-24T16:32:13.450Z,57.28
2022-11-24T16:34:40.013Z,58.70
2022-11-24T16:37:06.437Z,60.27
2022-11-24T16:39:33.255Z,59.46
2022-11-24T16:41:59.996Z,60.37
2022-11-24T16:44:27.040Z,63.52
2022-11-24T16:46:54.292Z,69.51
2022-11-24T16:49:20.868Z,69.14
2022-11-24T16:51:47.669Z,66.48
2022-11-24T16:54:14.308Z,64.73
2022-11-24T16:56:40.733Z,63.43
2022-11-24T16:59:07.501Z,62.46
2022-11-24T17:01:34.202Z,61.82
2022-11-24T17:04:01.214Z,61.28
2022-11-24T17:06:27.812Z,60.22
2022-11-24T17:08:54.517Z,60.07
2022-11-24T17:11:23.539Z,59.89
2022-11-24T17:13:50.133Z,59.38
2022-11-24T17:16:21.070Z,57.05
2022-11-24T17:18:48.046Z,56.69
2022-11-24T17:21:23.350Z,58.19
2022-11-24T17:23:57.471Z,59.66
2022-11-24T17:26:24.715Z,59.22
2022-11-24T17:28:51.692Z,59.68
2022-11-24T17:31:26.678Z,60.85
2022-11-24T17:33:55.720Z,59.91
2022-11-24T17:36:22.561Z,60.06
2022-11-24T17:38:49.810Z,59.87
2022-11-24T17:41:20.131Z,59.77
2022-11-24T17:43:51.765Z,60.07
2022-11-24T17:46:18.757Z,60.94
2022-11-24T17:48:46.494Z,61.28
2022-11-24T17:51:16.173Z,62.01
2022-11-24T17:53:44.890Z,68.20
2022-11-24T17:56:17.636Z,74.11
2022-11-24T17:58:44.273Z,72.50
2022-11-24T18:01:12.479Z,70.55
2022-11-24T18:03:40.343Z,68.35
2022-11-24T18:06:08.962Z,66.80
2022-11-24T18:08:36.219Z,65.30
2022-11-24T18:11:16.596Z,64.08
2022-11-24T18:14:00.991Z,63.15
2022-11-24T18:16:33.549Z,62.16
2022-11-24T18:19:08.674Z,60.87
2022-11-24T18:21:37.801Z,60.38
2022-11-24T18:24:04.844Z,59.72
2022-11-24T18:26:31.478Z,57.85
2022-11-24T18:28:58.117Z,57.20
2022-11-24T18:31:25.620Z,58.06
2022-11-24T18:33:52.411Z,59.51
2022-11-24T18:36:23.496Z,60.47
2022-11-24T18:38:52.342Z,60.53
2022-11-24T18:41:18.978Z,61.49
2022-11-24T18:43:45.819Z,61.07
2022-11-24T18:46:15.102Z,65.55
2022-11-24T18:48:42.779Z,70.77
2022-11-24T18:51:13.915Z,70.29
2022-11-24T18:53:41.992Z,68.38
2022-11-24T18:56:15.491Z,66.45
2022-11-24T18:58:42.534Z,65.94
2022-11-24T19:01:13.491Z,64.53
2022-11-24T19:03:52.111Z,63.59
2022-11-24T19:06:27.930Z,62.89
2022-11-24T19:08:54.608Z,62.19
2022-11-24T19:11:27.771Z,61.54
2022-11-24T19:13:55.643Z,61.43
2022-11-24T19:16:22.744Z,61.15
2022-11-24T19:18:53.587Z,60.43
2022-11-24T19:21:21.491Z,59.88
2022-11-24T19:23:48.633Z,59.76
2022-11-24T19:26:15.270Z,57.74
2022-11-24T19:28:41.804Z,56.60
2022-11-24T19:31:13.624Z,56.92
2022-11-24T19:33:40.622Z,58.03
2022-11-24T19:36:17.324Z,58.02
2022-11-24T19:38:49.947Z,60.31
2022-11-24T19:41:18.651Z,60.66
2022-11-24T19:43:46.619Z,60.26
2022-11-24T19:46:15.603Z,59.78
2022-11-24T19:48:44.389Z,59.45
2022-11-24T19:51:19.175Z,59.47
2022-11-24T19:53:45.757Z,60.46
2022-11-24T19:56:14.336Z,60.85
2022-11-24T19:58:43.998Z,61.88
2022-11-24T20:01:21.723Z,64.14
2022-11-24T20:03:54.903Z,71.68
2022-11-24T20:06:21.368Z,73.94
2022-11-24T20:08:47.934Z,73.36
2022-11-24T20:11:17.543Z,70.67
2022-11-24T20:13:45.062Z,67.65
2022-11-24T20:16:19.838Z,65.49
2022-11-24T20:18:47.142Z,63.83
2022-11-24T20:21:14.699Z,61.90
2022-11-24T20:23:41.696Z,60.02
2022-11-24T20:26:13.607Z,57.25
2022-11-24T20:28:40.756Z,56.68
2022-11-24T20:31:18.857Z,57.93
2022-11-24T20:33:45.843Z,59.25
2022-11-24T20:36:15.310Z,58.38
2022-11-24T20:38:42.253Z,60.38
2022-11-24T20:41:20.543Z,67.59
2022-11-24T20:43:47.505Z,68.83
2022-11-24T20:46:24.690Z,65.05
2022-11-24T20:48:53.374Z,62.89
2022-11-24T20:51:22.571Z,61.42
2022-11-24T20:53:50.022Z,60.80
2022-11-24T20:56:19.122Z,60.45
2022-11-24T20:58:46.163Z,59.89
2022-11-24T21:01:15.279Z,59.55
2022-11-24T21:03:43.536Z,57.76
2022-11-24T21:06:11.834Z,57.07
2022-11-24T21:08:39.986Z,57.56
2022-11-24T21:11:07.955Z,59.14
2022-11-24T21:13:35.519Z,59.85
2022-11-24T21:16:22.909Z,60.67
2022-11-24T21:18:51.906Z,64.45
2022-11-24T21:21:20.093Z,70.14
2022-11-24T21:23:47.557Z,68.68
2022-11-24T21:26:17.179Z,65.95
2022-11-24T21:28:45.832Z,64.63
2022-11-24T21:31:15.704Z,63.97
2022-11-24T21:33:48.114Z,63.06
2022-11-24T21:36:18.352Z,62.90
2022-11-24T21:38:53.545Z,62.51
2022-11-24T21:41:20.742Z,62.33
2022-11-24T21:43:47.480Z,61.69
2022-11-24T21:46:14.247Z,61.61
2022-11-24T21:48:41.671Z,61.44
2022-11-24T21:51:18.548Z,61.29
2022-11-24T21:53:45.597Z,61.13
2022-11-24T21:56:17.602Z,61.27
2022-11-24T21:58:52.929Z,61.18
2022-11-24T22:01:21.163Z,61.13
2022-11-24T22:03:47.919Z,61.00
2022-11-24T22:06:16.291Z,60.97
2022-11-24T22:08:42.838Z,61.07
2022-11-24T22:11:15.517Z,60.50
2022-11-24T22:13:42.854Z,60.79
2022-11-24T22:16:15.070Z,60.84
2022-11-24T22:18:42.785Z,60.58
2022-11-24T22:21:15.416Z,60.84
2022-11-24T22:23:41.974Z,61.00
2022-11-24T22:26:14.374Z,60.91
2022-11-24T22:28:41.723Z,61.37
2022-11-24T22:31:14.536Z,60.83
2022-11-24T22:33:41.348Z,60.62
2022-11-24T22:36:09.556Z,60.61
2022-11-24T22:38:36.258Z,60.49
2022-11-24T22:41:04.485Z,60.31
2022-11-24T22:43:32.551Z,59.88
2022-11-24T22:46:04.385Z,59.73
2022-11-24T22:48:31.313Z,59.83
2022-11-24T22:51:08.230Z,59.95
2022-11-24T22:53:35.025Z,60.09
2022-11-24T22:56:06.683Z,59.78
2022-11-24T22:58:33.627Z,59.88
2022-11-24T23:01:11.826Z,59.76
2022-11-24T23:03:38.689Z,59.71
2022-11-24T23:06:09.236Z,59.60
2022-11-24T23:08:36.287Z,59.57
2022-11-24T23:11:11.475Z,59.59
2022-11-24T23:13:38.118Z,58.08
2022-11-24T23:16:16.712Z,56.71
2022-11-24T23:18:44.603Z,57.82
2022-11-24T23:21:13.694Z,58.11
2022-11-24T23:23:40.587Z,57.96
2022-11-24T23:26:08.708Z,57.68
2022-11-24T23:28:35.456Z,58.16
2022-11-24T23:31:15.854Z,58.80
2022-11-24T23:33:42.752Z,59.16
2022-11-24T23:36:14.099Z,59.04
2022-11-24T23:38:41.144Z,60.42
2022-11-24T23:41:12.902Z,59.96
2022-11-24T23:43:40.667Z,61.50
2022-11-24T23:46:15.982Z,67.24
2022-11-24T23:48:42.845Z,72.68
2022-11-24T23:51:14.537Z,71.90
2022-11-24T23:53:41.241Z,69.18
2022-11-24T23:56:09.105Z,66.85
2022-11-24T23:58:35.639Z,65.31
